GW0449 Weather Reports


Display with metric or nautical units.
time (UTC)temp
F
wind
direction
speed
MPH
gust
MPH
rain 1hr
in
rain 24hr
in
rain mn
in
humidity
%
barometer
mb
20240227195602 27 110 5.0 6.0 0.00 0.00 0.00 79 1002.4
20240227194103 28 122 3.0 4.0 0.00 0.00 0.00 84 1002.4
20240227193102 27 99 3.0 5.0 0.00 0.00 0.00 84 1002.7
20240227191602 26 53 2.0 3.0 0.00 0.00 0.00 85 1003.4
20240227152602 29 16 7.0 10.0 0.00 0.00 0.00 83 999.0
20240227151102 30 70 9.0 13.0 0.00 0.00 0.00 81 998.0
20240227145606 32 28 15.0 17.0 0.00 0.00 0.00 80 997.3
20240227144102 35 47 20.0 23.0 0.00 0.00 0.00 71 994.6
20240227143101 42 348 9.0 18.0 0.00 0.00 0.00 53 993.9
20240227140602 45 220 8.0 16.0 0.00 0.00 0.00 49 993.2
20240227135102 44 212 11.0 14.0 0.00 0.00 0.00 49 993.2
20240227131101 43 136 2.0 4.0 0.00 0.00 0.00 52 993.6
20240227124601 45 203 9.0 14.0 0.00 0.00 0.00 48 993.2
20240227123102 45 253 8.0 16.0 0.00 0.00 0.00 48 993.2
20240227121601 45 205 16.0 16.0 0.00 0.00 0.00 47 993.2
20240227120104 45 227 9.0 16.0 0.00 0.00 0.00 46 992.9
20240227115102 46 216 14.0 17.0 0.00 0.00 0.00 45 992.9
20240227105102 45 219 9.0 15.0 0.00 0.00 0.00 48 993.6
20240227104101 41 182 8.0 17.0 0.00 0.00 0.00 54 993.9
20240227101102 38 299 3.0 6.0 0.00 0.00 0.00 55 994.2
20240227094601 39 222 4.0 5.0 0.00 0.00 0.00 54 994.9
20240227091602 39 322 4.0 7.0 0.00 0.00 0.00 52 995.3
20240227090102 40 200 4.0 4.0 0.00 0.00 0.00 50 995.3
20240227084602 40 169 3.0 4.0 0.00 0.00 0.00 49 995.6
20240227083601 41 173 4.0 4.0 0.00 0.00 0.00 47 995.6
20240227082102 44 57 0.0 2.0 0.00 0.00 0.00 43 995.9
20240227081102 46 54 3.0 6.0 0.00 0.00 0.00 42 996.3
20240227075602 45 199 8.0 9.0 0.00 0.00 0.00 42 996.3
20240227074601 44 174 3.0 7.0 0.00 0.00 0.00 44 996.6
20240227073102 41 252 3.0 6.0 0.00 0.00 0.00 50 996.6
20240227071603 41 322 2.0 4.0 0.00 0.00 0.00 49 997.0
20240227065103 43 194 2.0 3.0 0.00 0.00 0.00 45 997.6
20240227064102 44 233 3.0 4.0 0.00 0.00 0.00 44 997.6
20240227063102 44 214 6.0 6.0 0.00 0.00 0.00 44 998.0
20240227061601 45 227 6.0 8.0 0.00 0.00 0.00 43 998.3
20240227055101 46 217 5.0 9.0 0.00 0.00 0.00 40 998.3
20240227052602 46 207 7.0 10.0 0.00 0.00 0.00 39 999.0
20240227051102 48 217 7.0 14.0 0.00 0.00 0.00 37 999.0
20240227050102 48 235 11.0 15.0 0.00 0.00 0.00 36 999.0
20240227041602 46 228 7.0 8.0 0.00 0.00 0.00 36 1000.0
20240227040601 47 212 4.0 5.0 0.00 0.00 0.00 34 999.7
20240227035102 49 213 9.0 9.0 0.00 0.00 0.00 33 1000.0
20240227034102 49 203 7.0 10.0 0.00 0.00 0.00 33 1000.0
20240227032602 51 278 12.0 15.0 0.00 0.00 0.00 31 1000.0
20240227031102 51 276 9.0 18.0 0.00 0.00 0.00 28 999.7
20240227025604 51 238 9.0 15.0 0.00 0.00 0.00 27 999.3
20240227024602 51 193 13.0 17.0 0.00 0.00 0.00 27 999.3
20240227023102 51 162 6.0 12.0 0.00 0.00 0.00 27 999.7
20240227022102 51 181 9.0 13.0 0.00 0.00 0.00 26 999.7
20240227015102 50 202 5.0 6.0 0.00 0.00 0.00 24 999.7
20240227013602 50 214 7.0 7.0 0.00 0.00 0.00 25 999.7
20240227012102 51 218 3.0 6.0 0.00 0.00 0.00 26 999.7
20240227011102 52 205 4.0 5.0 0.00 0.00 0.00 25 999.7
20240227004102 55 134 0.0 4.0 0.00 0.00 0.00 24 999.7
20240227002604 56 208 4.0 6.0 0.00 0.00 0.00 22 999.7
20240227001602 57 317 4.0 6.0 0.00 0.00 0.00 21 999.7
20240227000102 57 291 4.0 6.0 0.00 0.00 0.00 21 999.7
20240226234601 58 276 4.0 9.0 0.00 0.00 0.00 21 999.7
20240226233102 59 285 4.0 12.0 0.00 0.00 0.00 21 999.7
20240226231601 59 299 15.0 20.0 0.00 0.00 0.00 19 999.7
20240226230102 59 278 18.0 21.0 0.00 0.00 0.00 19 1000.0
20240226224602 60 256 17.0 17.0 0.00 0.00 0.00 19 1000.3
20240226223602 60 263 19.0 19.0 0.00 0.00 0.00 19 1000.3
20240226220602 60 307 16.0 23.0 0.00 0.00 0.00 19 1000.7
20240226215101 60 244 20.0 24.0 0.00 0.00 0.00 19 1000.7
20240226213602 59 244 13.0 21.0 0.00 0.00 0.00 20 1000.7
20240226212602 60 235 11.0 21.0 0.00 0.00 0.00 19 1001.0
20240226211102 59 293 11.0 23.0 0.00 0.00 0.00 19 1001.0
20240226210102 59 278 17.0 25.0 0.00 0.00 0.00 19 1001.4
20240226204616 60 277 21.0 24.0 0.00 0.00 0.00 19 1001.4
20240226201602 60 300 18.0 18.0 0.00 0.00 0.00 19 1002.0